Time;durP1;ratioP1;P1;durP2;ratioP2;P2;SDS_P1;SDS_P2;PMS_P1;PMS_P2;Temp;Humidity;BMP_temperature;BMP_pressure;BME280_temperature;BME280_humidity;BME280_pressure;Samples;Min_cycle;Max_cycle;Signal;HPM_P1;HPM_P2
2020/12/02 00:01:22;;;;;;;20.33;10.63;;;;;;;-1.53;69.08;98219.24;1858650;77;21016;-77
2020/12/02 00:03:58;;;;;;;23.50;12.10;;;;;;;-1.51;69.12;98218.33;1858602;77;22129;-76
2020/12/02 00:06:25;;;;;;;24.30;11.97;;;;;;;-1.45;69.02;98219.92;1858405;77;20913;-77
2020/12/02 00:08:57;;;;;;;24.63;11.60;;;;;;;-1.39;68.87;98212.58;1858450;77;21372;-77
2020/12/02 00:11:27;;;;;;;21.23;10.40;;;;;;;-1.38;68.86;98216.38;1858099;77;20870;-76
2020/12/02 00:13:59;;;;;;;21.50;10.13;;;;;;;-1.35;68.62;98214.18;1858541;77;20909;-76
2020/12/02 00:16:28;;;;;;;20.12;10.18;;;;;;;-1.39;68.41;98216.41;1858680;77;21269;-76
2020/12/02 00:18:55;;;;;;;22.17;10.40;;;;;;;-1.42;68.47;98215.58;1858418;77;20933;-77
2020/12/02 00:21:24;;;;;;;26.20;12.30;;;;;;;-1.42;68.57;98214.30;1858543;77;21356;-77
2020/12/02 00:23:52;;;;;;;24.37;11.87;;;;;;;-1.42;68.76;98215.58;1858415;77;20984;-76
2020/12/02 00:26:20;;;;;;;21.37;10.80;;;;;;;-1.42;68.79;98218.13;1858629;77;20965;-77
2020/12/02 00:28:47;;;;;;;24.67;11.67;;;;;;;-1.43;68.89;98215.17;1858573;77;22520;-77
2020/12/02 00:31:15;;;;;;;19.90;10.60;;;;;;;-1.43;68.90;98216.89;1858392;77;20910;-77
2020/12/02 00:33:42;;;;;;;22.00;11.83;;;;;;;-1.43;69.04;98206.25;1858462;77;20914;-77
2020/12/02 00:36:10;;;;;;;22.93;11.23;;;;;;;-1.40;69.13;98209.19;1858436;77;21384;-77
2020/12/02 00:38:37;;;;;;;20.20;10.53;;;;;;;-1.38;69.13;98213.82;1858634;77;20890;-77
2020/12/02 00:41:04;;;;;;;18.63;10.03;;;;;;;-1.37;68.96;98204.45;1858578;76;21819;-77
2020/12/02 00:43:32;;;;;;;20.37;10.47;;;;;;;-1.39;69.01;98203.66;1858343;77;20985;-77
2020/12/02 00:46:01;;;;;;;23.50;11.93;;;;;;;-1.38;69.14;98207.88;1858477;77;20957;-77
2020/12/02 00:48:30;;;;;;;18.93;9.83;;;;;;;-1.33;69.12;98210.71;1858513;77;20894;-77
2020/12/02 00:50:58;;;;;;;24.50;12.70;;;;;;;-1.30;69.12;98206.84;1858588;77;20910;-77
2020/12/02 00:53:29;;;;;;;23.13;10.30;;;;;;;-1.26;69.10;98205.88;1858448;77;21304;-77
2020/12/02 00:55:56;;;;;;;24.50;11.90;;;;;;;-1.22;69.05;98204.12;1858078;77;21320;-77
2020/12/02 00:58:42;;;;;;;23.27;11.50;;;;;;;-1.18;68.97;98201.45;1858559;77;20902;-77
2020/12/02 01:01:12;;;;;;;23.60;12.70;;;;;;;-1.17;68.95;98200.56;1858415;77;20996;-77
2020/12/02 01:03:40;;;;;;;20.17;10.93;;;;;;;-1.20;69.02;98199.81;1858448;77;21399;-77
2020/12/02 01:06:09;;;;;;;23.93;12.13;;;;;;;-1.18;69.04;98191.67;1858466;77;21357;-77
2020/12/02 01:08:42;;;;;;;26.67;12.07;;;;;;;-1.16;69.02;98192.47;1858313;77;20945;-77
2020/12/02 01:11:21;;;;;;;;;;;;;;;-1.15;69.11;98185.24;1861154;77;21402;-77
2020/12/02 01:14:00;;;;;;;22.90;11.00;;;;;;;-1.11;69.08;98191.95;1858561;77;20268;-77
2020/12/02 01:16:38;;;;;;;25.83;11.77;;;;;;;-1.11;69.06;98190.66;1858498;77;21249;-77
2020/12/02 01:19:10;;;;;;;21.87;10.97;;;;;;;-1.11;69.05;98188.11;1858492;77;21176;-76
2020/12/02 01:22:03;;;;;;;21.02;10.55;;;;;;;-1.13;69.02;98187.31;1858519;77;20930;-76
2020/12/02 01:24:53;;;;;;;20.90;10.18;;;;;;;-1.13;69.28;98187.31;1861010;77;20981;-75
2020/12/02 01:27:37;;;;;;;19.63;10.43;;;;;;;-1.10;69.23;98187.23;1861436;77;20977;-75
2020/12/02 01:30:08;;;;;;;19.10;9.43;;;;;;;-1.10;69.27;98182.57;1861237;77;20910;-76
2020/12/02 01:32:35;;;;;;;19.80;9.83;;;;;;;-1.11;69.24;98176.62;1861466;77;22117;-76
2020/12/02 01:35:03;;;;;;;17.32;9.10;;;;;;;-1.12;69.37;98174.95;1858946;77;20975;-76
2020/12/02 01:37:36;;;;;;;17.37;9.53;;;;;;;-1.11;69.35;98177.06;1806067;77;20924;-76
2020/12/02 01:40:19;;;;;;;17.60;9.03;;;;;;;-1.11;69.44;98162.59;1831687;78;20982;-75
2020/12/02 01:43:01;;;;;;;17.70;10.00;;;;;;;-1.11;69.44;98162.59;1858984;77;21034;-76
2020/12/02 01:45:39;;;;;;;19.50;9.25;;;;;;;-1.09;69.14;98172.76;1859251;77;21945;-76
2020/12/02 01:48:43;;;;;;;18.23;9.70;;;;;;;-1.12;69.12;98170.28;1859187;76;20923;-75
2020/12/02 01:51:41;;;;;;;19.30;9.50;;;;;;;-1.11;69.24;98166.41;1858982;77;20994;-75
2020/12/02 01:54:13;;;;;;;20.10;9.73;;;;;;;-1.06;69.22;98173.55;1858819;77;20915;-76
2020/12/02 01:56:48;;;;;;;19.12;9.65;;;;;;;-1.04;69.19;98167.95;1859115;77;20963;-76
2020/12/02 01:59:43;;;;;;;21.05;10.40;;;;;;;-1.02;69.28;98169.19;1858954;77;21136;-76
2020/12/02 02:02:37;;;;;;;19.00;9.10;;;;;;;-1.03;69.04;98166.23;1858968;77;21011;-76
2020/12/02 02:05:16;;;;;;;17.67;8.97;;;;;;;-1.05;69.12;98164.16;1859071;77;20922;-76
2020/12/02 02:07:43;;;;;;;20.07;9.73;;;;;;;-1.06;69.19;98162.05;1858992;77;20986;-76
2020/12/02 02:10:31;;;;;;;18.13;9.30;;;;;;;-1.07;69.40;98162.94;1859128;77;20959;-76
2020/12/02 02:13:28;;;;;;;19.62;9.28;;;;;;;-1.06;69.50;98162.05;1859072;77;21913;-76
2020/12/02 02:16:18;;;;;;;17.23;8.97;;;;;;;-1.07;69.65;98160.82;1858927;77;20931;-76
2020/12/02 02:18:46;;;;;;;23.10;10.50;;;;;;;-1.11;69.68;98154.93;1858990;77;21294;-76
2020/12/02 02:21:18;;;;;;;17.00;8.70;;;;;;;-1.12;69.95;98152.42;1858963;77;21317;-76
2020/12/02 02:23:45;;;;;;;17.27;8.78;;;;;;;-1.10;69.99;98152.77;1857525;76;21326;-77
2020/12/02 02:26:30;;;;;;;19.27;9.57;;;;;;;-1.07;69.88;98148.89;1858709;77;21364;-76
2020/12/02 02:29:05;;;;;;;19.83;9.90;;;;;;;-1.05;69.74;98142.03;1858726;77;20911;-76
2020/12/02 02:32:02;;;;;;;18.37;9.80;;;;;;;-1.02;69.63;98143.22;1858841;77;20971;-76
2020/12/02 02:34:31;;;;;;;22.93;11.27;;;;;;;-1.01;69.50;98146.17;1858636;77;20996;-75
2020/12/02 02:37:01;;;;;;;19.30;9.63;;;;;;;-0.99;69.56;98144.88;1858749;77;20983;-76
2020/12/02 02:39:28;;;;;;;20.97;10.77;;;;;;;-0.98;69.50;98144.84;1858169;76;21278;-76
2020/12/02 02:42:01;;;;;;;17.90;9.25;;;;;;;-0.96;69.42;98146.91;1858592;77;20888;-76
2020/12/02 02:44:29;;;;;;;20.83;11.40;;;;;;;-0.94;69.46;98146.87;1858740;77;20967;-76
2020/12/02 02:46:56;;;;;;;17.83;9.17;;;;;;;-0.92;69.38;98145.94;1858611;77;20904;-76
2020/12/02 02:49:24;;;;;;;21.83;10.30;;;;;;;-0.91;69.24;98147.65;1858716;77;20864;-76
2020/12/02 02:51:51;;;;;;;18.93;10.13;;;;;;;-0.92;69.06;98147.22;1858731;77;21385;-76
2020/12/02 02:54:18;;;;;;;22.07;11.45;;;;;;;-0.96;69.14;98145.63;1858678;77;20939;-76
2020/12/02 02:56:46;;;;;;;19.23;10.50;;;;;;;-0.96;69.27;98141.80;1858755;77;20903;-76
2020/12/02 02:59:13;;;;;;;20.47;10.70;;;;;;;-0.97;69.35;98136.30;1858722;77;20966;-76
2020/12/02 03:01:43;;;;;;;18.50;9.70;;;;;;;-0.98;69.47;98135.90;1857904;77;21120;-76
2020/12/02 03:04:10;;;;;;;22.27;10.75;;;;;;;-0.97;69.57;98140.13;1858121;77;21349;-76
2020/12/02 03:06:37;;;;;;;18.20;10.07;;;;;;;-0.96;69.56;98137.97;1858614;77;21325;-76
2020/12/02 03:09:07;;;;;;;22.37;10.77;;;;;;;-0.94;69.71;98148.98;1858688;77;20903;-76
2020/12/02 03:11:35;;;;;;;18.87;10.10;;;;;;;-0.91;69.69;98136.16;1830669;77;21294;-76
2020/12/02 03:14:02;;;;;;;19.93;11.23;;;;;;;-0.90;69.76;98148.05;1858824;77;20978;-76
2020/12/02 03:16:46;;;;;;;21.12;10.45;;;;;;;-0.88;69.78;98143.73;1858808;77;21848;-76
2020/12/02 03:19:18;;;;;;;23.23;11.27;;;;;;;-0.87;69.67;98142.02;1858772;76;21390;-76
2020/12/02 03:21:46;;;;;;;22.05;10.53;;;;;;;-0.92;69.70;98138.72;1859005;77;24889;-76
2020/12/02 03:24:13;;;;;;;20.40;11.00;;;;;;;-0.97;69.79;98138.85;1858867;77;20943;-76
2020/12/02 03:26:41;;;;;;;22.00;11.43;;;;;;;-0.97;69.88;98135.46;1859047;77;20971;-75
2020/12/02 03:29:08;;;;;;;20.67;10.60;;;;;;;-1.00;69.92;98134.23;1859052;77;21187;-76
2020/12/02 03:31:35;;;;;;;20.77;10.87;;;;;;;-1.01;70.12;98134.68;1859195;77;20879;-76
2020/12/02 03:34:05;;;;;;;22.27;9.97;;;;;;;-0.97;70.19;98134.19;1859157;77;21377;-75
2020/12/02 03:36:32;;;;;;;18.87;10.30;;;;;;;-0.95;69.93;98135.81;1860848;76;20997;-75
2020/12/02 03:38:59;;;;;;;19.87;10.80;;;;;;;-0.96;69.78;98127.76;1859211;77;21003;-75
2020/12/02 03:41:26;;;;;;;18.92;10.43;;;;;;;-0.96;69.97;98127.76;1859172;77;21814;-75
2020/12/02 03:43:53;;;;;;;21.33;12.50;;;;;;;-0.98;69.90;98134.63;1859141;77;20978;-75
2020/12/02 03:46:20;;;;;;;20.73;10.43;;;;;;;-0.96;69.92;98132.86;1859187;77;20967;-75
2020/12/02 03:48:47;;;;;;;18.37;9.03;;;;;;;-0.96;69.77;98132.86;1859074;77;20876;-75
2020/12/02 03:51:15;;;;;;;17.05;9.13;;;;;;;-0.96;69.80;98134.58;1859109;77;21326;-76
2020/12/02 03:53:43;;;;;;;19.70;9.67;;;;;;;-0.93;69.90;98132.78;1859091;77;21196;-75
2020/12/02 03:56:10;;;;;;;17.30;8.77;;;;;;;-0.90;69.84;98137.83;1859014;77;21011;-75
2020/12/02 03:58:37;;;;;;;17.13;9.17;;;;;;;-0.87;69.72;98137.74;1859102;77;20919;-76
2020/12/02 04:01:04;;;;;;;18.47;9.63;;;;;;;-0.89;69.73;98138.23;1859075;77;20911;-76
2020/12/02 04:03:32;;;;;;;15.43;8.77;;;;;;;-0.90;69.75;98128.89;1859081;77;20982;-76
2020/12/02 04:05:59;;;;;;;17.37;9.07;;;;;;;-0.92;69.76;98126.80;1859084;77;21182;-76
2020/12/02 04:08:26;;;;;;;17.43;9.33;;;;;;;-0.92;69.88;98128.06;1859022;77;20884;-76
2020/12/02 04:10:54;;;;;;;18.27;9.17;;;;;;;-0.89;70.01;98131.84;1859046;77;20919;-75
2020/12/02 04:13:22;;;;;;;18.73;8.60;;;;;;;-0.89;69.98;98127.17;1859014;77;20967;-76
2020/12/02 04:15:49;;;;;;;20.20;8.87;;;;;;;-0.86;69.95;98132.20;1859164;77;20966;-75
2020/12/02 04:18:16;;;;;;;18.80;10.07;;;;;;;-0.87;70.08;98130.08;1859224;77;21190;-75
2020/12/02 04:20:45;;;;;;;20.20;9.70;;;;;;;-0.86;70.04;98131.75;1858868;77;20943;-76
2020/12/02 04:23:12;;;;;;;19.17;9.27;;;;;;;-0.83;70.26;98131.27;1858964;77;20994;-76
2020/12/02 04:25:40;;;;;;;17.70;8.93;;;;;;;-0.82;70.21;98132.98;1829542;77;21006;-76
2020/12/02 04:28:07;;;;;;;17.07;9.13;;;;;;;-0.80;70.19;98138.44;1827872;78;20911;-76
2020/12/02 04:30:34;;;;;;;18.13;9.80;;;;;;;-0.78;70.08;98138.39;1827842;78;21028;-76
2020/12/02 04:33:01;;;;;;;16.90;9.90;;;;;;;-0.80;70.02;98140.16;1827806;78;20924;-76
2020/12/02 04:35:30;;;;;;;18.43;9.80;;;;;;;-0.82;70.06;98142.75;1827789;77;20868;-76
2020/12/02 04:37:57;;;;;;;17.57;9.80;;;;;;;-0.85;70.07;98140.25;1827721;78;20896;-76
2020/12/02 04:40:35;;;;;;;18.60;9.87;;;;;;;-0.87;70.19;98139.02;1827787;78;21307;-76
2020/12/02 04:43:10;;;;;;;21.68;9.40;;;;;;;-0.83;70.31;98132.55;1827681;77;21186;-76
2020/12/02 04:45:37;;;;;;;19.93;9.83;;;;;;;-0.77;70.25;98137.52;1827689;78;20931;-75
2020/12/02 04:48:15;;;;;;;17.60;9.13;;;;;;;-0.75;70.03;98135.31;1827658;78;20908;-75
2020/12/02 04:50:42;;;;;;;19.40;9.37;;;;;;;-0.77;69.98;98138.78;1827760;77;20971;-76
2020/12/02 04:53:14;;;;;;;22.17;10.30;;;;;;;-0.79;70.01;98138.83;1827721;77;21413;-76
2020/12/02 04:55:43;;;;;;;19.80;9.85;;;;;;;-0.81;70.07;98134.21;1827863;78;21181;-76
2020/12/02 04:58:33;;;;;;;21.80;9.77;;;;;;;-0.82;70.16;98136.81;1827734;77;20932;-76
2020/12/02 05:01:31;;;;;;;16.20;8.98;;;;;;;-0.83;70.31;98135.10;1821065;78;21421;-76
2020/12/02 05:04:07;;;;;;;19.17;9.60;;;;;;;-0.82;70.31;98133.81;1827678;78;20907;-76
2020/12/02 05:06:49;;;;;;;22.13;9.75;;;;;;;-0.79;70.30;98139.27;1827713;78;21023;-76
2020/12/02 05:09:23;;;;;;;;;;;;;;;-0.79;70.32;98141.39;1830462;78;21314;-76
2020/12/02 05:12:14;;;;;;;16.97;8.68;;;;;;;-0.77;70.48;98142.63;1827429;78;20189;-76
2020/12/02 05:14:45;;;;;;;20.90;9.60;;;;;;;-0.74;70.36;98137.45;1827806;78;20967;-75
2020/12/02 05:17:21;;;;;;;22.52;9.53;;;;;;;-0.77;70.33;98136.23;1827652;78;21085;-75
2020/12/02 05:20:14;;;;;;;18.87;9.80;;;;;;;-0.79;70.31;98135.44;1827678;78;20915;-76
2020/12/02 05:22:44;;;;;;;20.70;10.57;;;;;;;-0.80;70.39;98136.33;1827691;77;21178;-76
2020/12/02 05:25:19;;;;;;;18.57;9.35;;;;;;;-0.81;70.41;98145.70;1847214;77;20983;-75
2020/12/02 05:27:49;;;;;;;23.45;9.55;;;;;;;-0.81;70.58;98142.31;1827660;77;21456;-75
2020/12/02 05:30:33;;;;;;;20.23;9.68;;;;;;;-0.79;70.65;98141.83;1858504;76;20923;-75
2020/12/02 05:33:17;;;;;;;18.87;8.93;;;;;;;-0.79;70.45;98143.94;1858267;77;21144;-75
2020/12/02 05:35:54;;;;;;;20.33;9.47;;;;;;;-0.78;70.53;98143.50;1858485;77;21132;-75
2020/12/02 05:38:29;;;;;;;15.77;8.43;;;;;;;-0.78;70.61;98143.06;1858133;77;21014;-75
2020/12/02 05:40:56;;;;;;;22.17;10.47;;;;;;;-0.76;70.65;98145.56;1858441;77;20923;-77
2020/12/02 05:43:32;;;;;;;20.10;10.20;;;;;;;-0.73;70.68;98150.63;1855478;77;21022;-77
2020/12/02 05:45:59;;;;;;;17.57;9.17;;;;;;;-0.76;70.54;98144.30;1830594;77;21199;-76
2020/12/02 05:48:37;;;;;;;19.23;9.23;;;;;;;-0.78;70.73;98149.45;1858382;77;21784;-76
2020/12/02 05:51:04;;;;;;;18.60;9.90;;;;;;;-0.79;70.69;98143.11;1858409;77;21369;-81
2020/12/02 05:53:50;;;;;;;22.20;9.78;;;;;;;-0.80;70.70;98151.20;1803865;77;20979;-81
2020/12/02 05:56:26;;;;;;;23.13;10.53;;;;;;;-0.73;71.06;98142.96;1845279;77;22346;-82
2020/12/02 05:58:53;;;;;;;22.07;10.07;;;;;;;-0.79;70.82;98147.77;1801940;79;20933;-79
2020/12/02 06:01:21;;;;;;;29.27;11.35;;;;;;;-0.81;70.98;98146.98;1799600;77;21903;-78
2020/12/02 06:03:54;;;;;;;30.48;13.08;;;;;;;-0.81;71.04;98153.36;1811788;78;21030;-76
2020/12/02 06:06:22;;;;;;;;;;;;;;;-0.79;71.22;98149.05;1814531;79;21327;-77
2020/12/02 06:08:50;;;;;;;29.40;10.87;;;;;;;-0.78;71.21;98149.89;1818471;77;20173;-77
2020/12/02 06:11:26;;;;;;;29.75;12.88;;;;;;;-0.79;71.24;98146.94;1805215;77;21394;-80
2020/12/02 06:14:04;;;;;;;20.45;11.28;;;;;;;-0.80;71.21;98146.54;1812802;77;21625;-79
2020/12/02 06:16:43;;;;;;;19.87;9.70;;;;;;;-0.79;71.36;98146.94;1803578;78;21347;-80
2020/12/02 06:19:21;;;;;;;26.47;10.53;;;;;;;-0.78;71.50;98150.72;1793642;77;20981;-80
2020/12/02 06:21:54;;;;;;;23.65;12.13;;;;;;;-0.76;71.53;98151.95;1813297;77;20970;-82
2020/12/02 06:24:39;;;;;;;27.93;13.08;;;;;;;-0.75;71.46;98151.91;1804258;77;21391;-84
2020/12/02 06:27:29;;;;;;;32.90;13.65;;;;;;;-0.75;71.44;98154.47;1809900;78;21803;-77
2020/12/02 06:30:07;;;;;;;28.57;13.47;;;;;;;-0.73;71.52;98151.45;1811658;78;21514;-76
2020/12/02 06:32:35;;;;;;;27.73;13.00;;;;;;;-0.67;71.52;98158.11;1808790;78;21718;-81
2020/12/02 06:35:19;;;;;;;44.63;22.45;;;;;;;-0.66;71.46;98148.31;1801920;78;20988;-79
2020/12/02 06:38:28;;;;;;;46.48;21.30;;;;;;;-0.67;71.32;98158.95;1775552;79;21149;-78
2020/12/02 06:41:01;;;;;;;49.13;24.92;;;;;;;-0.69;71.30;98160.70;1791479;79;21790;-78
2020/12/02 06:43:34;;;;;;;54.67;24.15;;;;;;;-0.67;71.28;98161.94;1796738;79;21024;-76
2020/12/02 06:46:05;;;;;;;39.55;19.48;;;;;;;-0.64;71.14;98156.77;1784299;77;21414;-74
2020/12/02 06:48:37;;;;;;;46.15;16.00;;;;;;;-0.63;71.09;98158.00;1786479;77;21035;-80
2020/12/02 06:51:11;;;;;;;27.40;15.60;;;;;;;-0.61;71.05;98157.96;1791438;77;21153;-78
2020/12/02 06:53:41;;;;;;;26.25;10.38;;;;;;;-0.61;71.05;98158.80;1799561;77;21358;-80
2020/12/02 06:56:17;;;;;;;30.37;11.10;;;;;;;-0.63;70.97;98154.61;1783865;78;21533;-78
2020/12/02 06:58:47;;;;;;;30.40;11.22;;;;;;;-0.67;71.01;98151.72;1782160;79;21162;-76
2020/12/02 07:01:18;;;;;;;22.13;10.60;;;;;;;-0.66;71.19;98153.42;1769063;79;21139;-74
2020/12/02 07:03:45;;;;;;;26.53;13.03;;;;;;;-0.63;71.49;98148.23;1750230;78;21151;-75
2020/12/02 07:06:23;;;;;;;30.40;12.17;;;;;;;-0.63;71.27;98145.23;1816481;78;21203;-78
2020/12/02 07:09:15;;;;;;;26.73;12.43;;;;;;;-0.61;71.24;98149.86;1768350;78;21167;-75
2020/12/02 07:11:57;;;;;;;26.85;11.08;;;;;;;-0.59;71.36;98149.81;1789239;78;21171;-76
2020/12/02 07:14:38;;;;;;;23.93;10.97;;;;;;;-0.57;71.06;98153.19;1782260;78;21164;-78
2020/12/02 07:17:10;;;;;;;19.52;9.55;;;;;;;-0.64;70.88;98154.22;1791170;78;20989;-78
2020/12/02 07:19:44;;;;;;;20.37;9.55;;;;;;;-0.72;71.33;98152.30;1788219;78;21360;-82
2020/12/02 07:22:27;;;;;;;24.15;10.72;;;;;;;-0.74;71.62;98153.61;1775237;79;21146;-82
2020/12/02 07:25:04;;;;;;;22.20;11.70;;;;;;;-0.74;71.89;98143.84;1743137;81;21163;-83
2020/12/02 07:27:45;;;;;;;;;;;;;;;-0.73;71.96;98144.23;1751508;79;21215;-76
2020/12/02 07:30:32;;;;;;;25.07;11.60;;;;;;;-0.73;72.16;98146.35;1767718;79;20263;-78
2020/12/02 07:33:24;;;;;;;24.60;12.07;;;;;;;-0.69;72.31;98144.55;1721080;83;21201;-80
2020/12/02 07:36:15;;;;;;;22.47;10.87;;;;;;;-0.66;72.15;98146.60;1771122;81;21537;-78
2020/12/02 07:38:43;;;;;;;31.17;13.55;;;;;;;-0.66;72.15;98147.88;1785064;79;21521;-77
2020/12/02 07:41:17;;;;;;;26.25;13.13;;;;;;;-0.63;72.37;98144.39;1791824;79;21150;-79
2020/12/02 07:43:48;;;;;;;28.95;14.07;;;;;;;-0.57;72.22;98139.14;1772294;79;21403;-78
2020/12/02 07:46:15;;;;;;;27.50;13.68;;;;;;;-0.51;71.95;98138.95;1784019;79;21784;-77
2020/12/02 07:48:42;;;;;;;33.50;15.05;;;;;;;-0.46;71.79;98142.68;1765836;79;21115;-78
2020/12/02 07:51:30;;;;;;;25.03;12.83;;;;;;;-0.41;71.62;98135.30;1756183;79;21159;-77
2020/12/02 07:54:11;;;;;;;28.52;15.93;;;;;;;-0.39;71.56;98123.31;1801940;79;21032;-79
2020/12/02 07:56:39;;;;;;;24.30;12.43;;;;;;;-0.35;71.34;98125.33;1778480;79;21170;-78
2020/12/02 07:59:15;;;;;;;22.87;11.13;;;;;;;-0.32;71.29;98127.83;1732891;79;22228;-77
2020/12/02 08:01:55;;;;;;;27.13;11.93;;;;;;;-0.32;71.23;98126.55;1804377;78;21151;-85
2020/12/02 08:04:34;;;;;;;28.50;15.13;;;;;;;-0.30;71.25;98127.34;1782911;78;21143;-82
2020/12/02 08:07:05;;;;;;;25.97;13.83;;;;;;;-0.26;71.18;98134.03;1818070;78;21139;-81
2020/12/02 08:09:40;;;;;;;35.10;15.53;;;;;;;-0.22;71.21;98136.08;1792197;78;21604;-83
2020/12/02 08:12:31;;;;;;;31.20;13.80;;;;;;;-0.15;71.23;98131.20;1826718;77;22712;-85
2020/12/02 08:15:08;;;;;;;37.98;13.88;;;;;;;-0.15;71.11;98129.92;1789827;80;20993;-77
2020/12/02 08:17:35;;;;;;;27.27;13.77;;;;;;;-0.09;70.99;98136.13;1817288;79;22134;-75
2020/12/02 08:20:33;;;;;;;27.75;12.63;;;;;;;-0.05;70.90;98130.06;1817517;79;21006;-79
2020/12/02 08:23:27;;;;;;;28.87;12.63;;;;;;;-0.04;70.90;98130.02;1817042;79;21417;-78
2020/12/02 08:26:00;;;;;;;25.57;11.53;;;;;;;-0.04;70.87;98129.17;1817431;79;20975;-76
2020/12/02 08:28:35;;;;;;;22.30;12.05;;;;;;;-0.03;70.70;98127.02;1817441;79;21282;-80
2020/12/02 08:31:28;;;;;;;24.12;12.10;;;;;;;-0.04;70.59;98127.89;1836251;77;21423;-76
2020/12/02 08:34:27;;;;;;;22.35;11.38;;;;;;;-0.14;70.50;98126.48;1849740;76;21366;-78
2020/12/02 08:37:20;;;;;;;38.13;18.12;;;;;;;-0.25;70.85;98126.75;1821404;75;21018;-78
2020/12/02 08:39:50;;;;;;;27.25;14.38;;;;;;;-0.25;71.29;98128.47;1833048;76;21165;-77
2020/12/02 08:42:31;;;;;;;27.40;12.28;;;;;;;-0.21;71.59;98119.86;1827609;76;20978;-79
2020/12/02 08:45:15;;;;;;;26.20;12.58;;;;;;;-0.19;71.54;98121.48;1833848;76;21129;-75
2020/12/02 08:47:43;;;;;;;22.10;12.00;;;;;;;-0.15;71.60;98120.98;1821002;76;21133;-78
2020/12/02 08:50:18;;;;;;;19.35;9.93;;;;;;;-0.18;71.17;98118.04;1834083;76;21609;-76
2020/12/02 08:52:53;;;;;;;20.15;10.82;;;;;;;-0.19;71.39;98118.92;1829785;76;21172;-77
2020/12/02 08:55:21;;;;;;;23.90;12.03;;;;;;;-0.18;71.25;98118.04;1836375;76;21171;-77
2020/12/02 08:57:50;;;;;;;21.20;11.03;;;;;;;-0.19;71.44;98116.38;1810241;78;22062;-78
2020/12/02 09:00:27;;;;;;;20.75;9.90;;;;;;;-0.18;71.56;98120.59;1830055;77;21500;-78
2020/12/02 09:02:55;;;;;;;19.85;10.70;;;;;;;-0.15;71.68;98114.59;1831715;76;21232;-80
2020/12/02 09:05:22;;;;;;;27.30;11.53;;;;;;;-0.15;71.84;98111.59;1841124;76;21137;-78
2020/12/02 09:07:52;;;;;;;39.10;22.27;;;;;;;-0.11;71.90;98112.33;1804072;78;21123;-81
2020/12/02 09:10:20;;;;;;;27.60;15.95;;;;;;;-0.10;71.68;98113.55;1799599;79;21197;-84
2020/12/02 09:12:49;;;;;;;29.82;20.17;;;;;;;-0.06;71.52;98111.33;1772685;79;21760;-74
2020/12/02 09:15:16;;;;;;;38.73;25.45;;;;;;;0.01;71.52;98109.44;1780478;79;21169;-76
2020/12/02 09:17:44;;;;;;;44.05;24.65;;;;;;;0.03;70.88;98105.11;1775924;79;21562;-76
2020/12/02 09:20:11;;;;;;;30.05;16.80;;;;;;;0.03;71.04;98103.83;1775806;79;21126;-79
2020/12/02 09:22:39;;;;;;;37.70;20.52;;;;;;;0.07;71.07;98097.73;1779822;79;21333;-81
2020/12/02 09:25:07;;;;;;;34.45;19.20;;;;;;;0.10;71.08;98094.27;1783588;79;21195;-78
2020/12/02 09:27:36;;;;;;;25.60;15.50;;;;;;;0.10;70.72;98101.50;1783039;79;20991;-83
2020/12/02 09:30:05;;;;;;;27.07;13.22;;;;;;;0.11;70.59;98093.38;1780120;79;21134;-78
2020/12/02 09:32:36;;;;;;;27.45;12.55;;;;;;;0.11;70.55;98086.98;1778203;79;21537;-78
2020/12/02 09:35:15;;;;;;;33.90;17.63;;;;;;;0.16;70.58;98090.23;1779894;79;21366;-76
2020/12/02 09:37:52;;;;;;;39.58;20.72;;;;;;;0.21;70.50;98088.37;1783635;78;21138;-79
2020/12/02 09:40:19;;;;;;;35.00;20.88;;;;;;;0.21;70.24;98093.05;1783495;79;21114;-78
2020/12/02 09:43:36;;;;;;;56.20;35.85;;;;;;;0.16;70.53;98089.78;1781254;79;21610;-80
2020/12/02 09:46:12;;;;;;;49.63;26.85;;;;;;;0.14;70.35;98089.00;1787932;78;21146;-82
2020/12/02 09:48:40;;;;;;;26.85;14.30;;;;;;;0.10;70.67;98080.20;1776572;79;22025;-84
2020/12/02 09:51:21;;;;;;;33.02;18.82;;;;;;;0.13;70.83;98075.81;1796392;78;21171;-82
2020/12/02 09:53:49;;;;;;;36.90;21.97;;;;;;;0.15;70.59;98074.05;1800875;78;21066;-75
2020/12/02 09:56:17;;;;;;;43.85;26.07;;;;;;;0.18;70.55;98071.86;1818776;77;21168;-75
2020/12/02 09:58:45;;;;;;;59.23;40.75;;;;;;;0.18;70.41;98066.74;1798591;78;21110;-79
2020/12/02 10:01:32;;;;;;;27.87;17.30;;;;;;;0.15;70.35;98059.97;1790473;78;22145;-78
2020/12/02 10:04:33;;;;;;;28.60;14.07;;;;;;;0.15;70.50;98052.74;1796384;78;21153;-79
2020/12/02 10:07:15;;;;;;;26.87;13.62;;;;;;;0.19;70.75;98055.18;1785054;79;21151;-77
2020/12/02 10:09:58;;;;;;;35.00;17.35;;;;;;;0.26;70.79;98049.00;1789901;79;20987;-74
2020/12/02 10:13:12;;;;;;;35.90;14.45;;;;;;;0.39;70.46;98048.61;1810511;78;21064;-78
2020/12/02 10:16:03;;;;;;;37.15;17.40;;;;;;;0.46;70.18;98042.41;1810714;78;21265;-83
2020/12/02 10:18:42;;;;;;;31.55;14.90;;;;;;;0.54;69.86;98041.28;1806090;78;21144;-84
2020/12/02 10:21:42;;;;;;;45.12;27.40;;;;;;;0.53;69.52;98038.78;1813682;78;21194;-77
2020/12/02 10:24:52;;;;;;;54.42;30.88;;;;;;;0.51;69.21;98037.55;1810522;78;21175;-82
2020/12/02 10:27:46;;;;;;;61.80;45.20;;;;;;;0.47;69.34;98037.24;1814882;78;21204;-76
2020/12/02 10:30:18;;;;;;;43.45;23.10;;;;;;;0.45;69.38;98039.47;1815261;78;21929;-76
2020/12/02 10:33:28;;;;;;;32.80;18.02;;;;;;;0.41;69.79;98025.08;1782025;77;21055;-77
2020/12/02 10:35:57;;;;;;;28.98;15.45;;;;;;;0.45;69.77;98028.78;1796623;78;21125;-77
2020/12/02 10:38:35;;;;;;;27.50;13.50;;;;;;;0.37;69.43;98021.79;1807622;78;21112;-76
2020/12/02 10:41:16;;;;;;;31.40;16.07;;;;;;;0.23;69.62;98022.20;1823202;78;21154;-76
2020/12/02 10:44:10;;;;;;;30.97;14.63;;;;;;;0.14;70.14;98023.77;1813035;78;21478;-82
2020/12/02 10:46:52;;;;;;;29.70;15.30;;;;;;;0.20;70.68;98025.31;1810746;78;21187;-77
2020/12/02 10:49:33;;;;;;;31.50;16.20;;;;;;;0.26;70.78;98017.02;1800598;77;21150;-77
2020/12/02 10:52:09;;;;;;;30.32;16.15;;;;;;;0.34;70.65;98013.39;1769745;79;21137;-74
2020/12/02 10:54:41;;;;;;;38.10;16.90;;;;;;;0.42;70.60;98013.98;1800658;79;21176;-75
2020/12/02 10:57:24;;;;;;;32.78;16.40;;;;;;;0.48;70.13;98020.16;1826513;77;21969;-83
2020/12/02 10:59:58;;;;;;;27.02;15.68;;;;;;;0.50;69.84;98018.41;1764971;78;21163;-75
2020/12/02 11:02:31;;;;;;;28.20;16.87;;;;;;;0.50;70.04;98014.58;1822574;78;21147;-77
2020/12/02 11:05:00;;;;;;;31.15;17.92;;;;;;;0.53;69.83;98010.19;1821260;77;21149;-78
2020/12/02 11:07:38;;;;;;;37.83;17.45;;;;;;;0.59;69.91;98008.33;1794248;78;21208;-79
2020/12/02 11:10:25;;;;;;;28.07;15.13;;;;;;;0.60;69.77;98013.39;1826393;77;21290;-77
2020/12/02 11:13:22;;;;;;;25.00;14.00;;;;;;;0.65;69.81;98013.22;1795977;77;21232;-75
2020/12/02 11:16:04;;;;;;;31.65;16.02;;;;;;;0.67;69.26;98009.74;1793037;78;21181;-76
2020/12/02 11:19:04;;;;;;;28.70;18.20;;;;;;;0.53;69.42;98008.06;1813257;78;21143;-77
2020/12/02 11:22:01;;;;;;;30.83;14.80;;;;;;;0.48;70.14;98003.53;1827057;77;22711;-74
2020/12/02 11:24:46;;;;;;;30.35;16.97;;;;;;;0.41;70.06;98002.05;1802582;78;21040;-76
2020/12/02 11:27:13;;;;;;;31.68;19.10;;;;;;;0.37;70.53;97994.92;1804937;78;21183;-84
2020/12/02 11:29:42;;;;;;;25.17;14.63;;;;;;;0.39;70.63;98000.82;1802145;78;21039;-81
2020/12/02 11:32:46;;;;;;;27.30;15.53;;;;;;;0.44;70.68;97996.85;1792500;79;21012;-76
2020/12/02 11:35:18;;;;;;;31.60;16.27;;;;;;;0.46;70.50;97994.63;1792388;80;20985;-76
2020/12/02 11:37:59;;;;;;;28.85;16.15;;;;;;;0.44;70.61;97993.02;1800438;78;21395;-77
2020/12/02 11:40:34;;;;;;;26.70;16.10;;;;;;;0.44;70.61;97993.02;1817297;78;21373;-76
2020/12/02 11:43:23;;;;;;;30.65;15.18;;;;;;;0.42;70.50;97988.39;1774762;80;21032;-73
2020/12/02 11:45:52;;;;;;;29.80;14.63;;;;;;;0.39;71.05;97981.63;1799903;78;21020;-74
2020/12/02 11:48:35;;;;;;;32.67;18.48;;;;;;;0.41;70.92;97980.30;1802443;78;21055;-76
2020/12/02 11:51:42;;;;;;;42.30;23.77;;;;;;;0.46;71.02;97983.11;1793509;80;21012;-75
2020/12/02 11:54:10;;;;;;;30.05;15.78;;;;;;;0.48;70.75;97986.45;1795405;78;22146;-75
2020/12/02 11:56:44;;;;;;;27.80;16.80;;;;;;;0.47;70.92;97984.78;1813853;78;21147;-75
2020/12/02 11:59:22;;;;;;;29.65;17.42;;;;;;;0.42;70.74;97980.27;1792639;78;21044;-76
2020/12/02 12:02:19;;;;;;;26.77;14.40;;;;;;;0.32;71.00;97979.31;1827535;78;21130;-75